Mattapoisett, MA (02739)

9:20 PM EST on January 20, 2017 (GMT -0500)
Head of the Harbor Weather Station | | Change Station
Active Advisory: Gale Watch

Elev 0 ft 41.66 °N, 70.82 °W | Updated 10 seconds ago

Overcast
Overcast
36.9 °F
Feels Like 37 °F
N
0.0
Wind Variable Wind from ESE

Today
High -- | Low -- °F
--% Chance of Precip.
Yesterday
High -- | Low -- °F
Precip. -- in
Pressure 29.95 in
Visibility 10.0 miles
Clouds Overcast 2500 ft
Windchill 37 °F
Dew Point 33 °F
Humidity 88%
Rainfall 0.00 in
Snow Depth Not available.
7:05 AM 4:44 PM
Last Quarter, 39% visible
METAR KEWB 210153Z 00000KT 10SM OVC025 03/00 A2995 RMK AO2 SLP141 T00280000
Pressure 29.95 in
Visibility 10.0 miles
Clouds Overcast 2500 ft
Windchill 37 °F
Dew Point 33 °F
Humidity 88%
Rainfall 0.00 in
Snow Depth Not available.
7:05 AM 4:44 PM
Last Quarter, 39% visible
METAR KEWB 210153Z 00000KT 10SM OVC025 03/00 A2995 RMK AO2 SLP141 T00280000

Get Your Daily Forecast Email!

Thanks for signing up!

Be on the lookout for a verification email in your inbox.

You'll start receiving the daily forecast at 8 AM.

×

10-Day Weather Forecast

Almanac

Astronomy

Jan. 20, 2017 Rise Set
Actual Time
Civil Twilight
Nautical Twilight
Astronomical Twilight
Moon
Length of Visible Light
Length of Day
Tomorrow will be .
, % of the Moon is Illuminated

Today's Extremes

State Highs State Lows

Community

WunderPhotos

Upload Photos

1,962,540 photos uploaded!

WunderBlog® & News

Nearby

Air Quality

  Air Quality AQ Index Pollutant
Not available.

Snow Depth

Station Depth Elevation

Earthquake Activity

City Distance Mag. Time & Date
Minimum magnitude displayed is 2.5.

Coastal Water Temperatures

Place Temperature

Stations

Nearby Weather Stations

Station Location Temp. Windchill Dew Point Humidity Wind Precip. Elev Updated Type
                   

Watches & Warnings

Gale Watch
Issued: 4:20 PM EST Jan. 20, 2017 – National Weather Service

... Gale watch in effect from Sunday evening through late Monday
night...

The National Weather Service in Taunton has issued a gale watch...
which is in effect from Sunday evening through late Monday night.

* Winds and seas... east winds 25 to 35 kt with gusts up to 45
kt. Seas 3 to 6 feet.

Precautionary/preparedness actions...

A gale watch is issued when the risk of gale force winds of 34 to
47 knots has significantly increased... but the specific timing
and/or location is still uncertain. It is intended to provide
additional lead time for mariners who may wish to consider
altering their plans.